Aérodrome :
LOGIN :

S'inscrire | Disclaimer

   EN    FR    IT 

 










Légende :    VFR   VFR Marginal   IFR   IFR Intensif   IFR Très Intensif
Visi : 
Plafond : 
>= 8 km
>= 3000ft
5 à 8 km
1000 à 3000 ft
1500m à 5 km
500 à 1000 ft
800 à 1500m
200 à 500 ft
< 800m
< 200 ft
Symboles :   Orages  Brouillard  Fortes neiges  Fortes précipitations  Vent > 20 kt
SIGMETs :   Divers  Orages  Givrage  Turbulence  Onde Orograph.  Cendres Volcan.







- Altitude de l'aérodrome : 3 ft
- Code IATA : LWR


EHLW - Leuuwarden Air Base

DERNIER METAR :
  • 140755Z AUTO 27006KT 9999 FEW015CB SCT023 BKN042 03/01 Q0986 WHT

METARs EXPIRÉS :
  • 140726Z AUTO 29012KT 260V320 9999 FEW015CB SCT037 BKN050 03/01 Q0986 BLU
  • 140725Z AUTO 29013KT 260V320 9999 FEW009 FEW015CB SCT018 BKN033 03/02 Q0987 REDZ WHT
  • 140709Z AUTO 26008KT 230V290 9999 FEW014 FEW015CB BKN021 OVC025 04/02 Q0986 WHT
  • 140655Z AUTO 27013KT 240V310 9999 -RA FEW013 FEW015CB BKN016 BKN019 03/02 Q0986 WHT
  • 140646Z AUTO 28012G25KT 250V310 6000 -RA FEW010 SCT015CB BKN018 04/02 Q0986 WHT
  • 140639Z AUTO 28009KT 250V310 9999 FEW012 FEW015CB BKN018 OVC025 04/02 Q0986 WHT
  • 140625Z AUTO 29011KT 210V310 9999 DZ FEW011 BKN014 FEW015CB OVC017 04/02 Q0986 GRN
  • 140613Z AUTO 26006KT 5000 SHRA FEW015CB SCT016 BKN020 BKN028 03/02 Q0986 WHT
  • 140556Z AUTO 27009KT 230V300 9999 -SHRA FEW008 SCT013 FEW015CB BKN016 03/02 Q0986 GRN
  • 140525Z AUTO 24010KT 210V270 9999 BKN012 FEW015CB BKN019 OVC025 03/02 Q0985 REDZ GRN
  • 140511Z AUTO 26009KT 230V300 9999 -RADZ FEW001 SCT011 BKN014 SCT015CB 02/02 Q0985 GRN

TAF TAF EHLW
Valide du 14 à 06h jusqu'au 14 à 18h UTC


140538Z 1406/1418 26010KT 9999 SCT020 BKN030
TEMPO 1406/1413 27012G22KT 4500 SHRA SHGS FEW008 SCT012 BKN018CB
TEMPO 1413/1417 SCT015 SCT020CB BKN025
BECMG 1413/1415 23010KT
Pas de NOTAMs connus pour ce terrain.



MET'MAP, la Météo Aéronautique d'un coup d'oeil ! - Copyright ORBIFLY Décembre 2007 - Disclaimer

ORBIFLY MET'MAP TEAM :

Programmation & Développement : Alexandra Zaïnal
Conception & Développement : Baudouin d'Aumeries
Co-Programmation & Développement : Marc-Olivier Méhu
Soutien technique & logistique : Manuel Goepfert

Contact : metmap@orbifly.com




SOURCES & CREDITS :

   NOAA